Time,TemperatureF,DewpointF,PressureIn,WindDirection,WindDirectionDegrees,WindSpeedMPH,WindSpeedGustMPH,Humidity,HourlyPrecipIn,Conditions,Clouds,dailyrainin,SoftwareType,DateUTC
2013-06-10 00:01:00,53.6,51.6,30.17,North,0,0.0,0.0,93,0.00,RA,,0.00,WeatherDisplay:10.37,2013-06-10 04:01:00,
2013-06-10 00:02:00,53.5,51.5,30.17,North,0,0.0,0.0,93,0.00,RA,,0.00,WeatherDisplay:10.37,2013-06-10 04:02:00,
2013-06-10 00:03:00,53.5,51.5,30.17,North,0,0.0,0.0,93,0.00,CLR,,0.00,WeatherDisplay:10.37,2013-06-10 04:03:00,
2013-06-10 00:04:00,53.4,51.4,30.17,North,0,0.0,0.0,93,0.00,CLR,,0.00,WeatherDisplay:10.37,2013-06-10 04:04:00,
2013-06-10 00:09:00,53.6,51.6,30.17,North,0,0.0,0.0,93,0.00,CLR,,0.00,WeatherDisplay:10.37,2013-06-10 04:09:00,
2013-06-10 00:14:00,53.2,51.2,30.17,North,0,0.0,0.0,93,0.00,CLR,,0.00,WeatherDisplay:10.37,2013-06-10 04:14:00,
2013-06-10 00:19:00,52.9,50.9,30.17,North,0,0.0,0.0,93,0.00,CLR,,0.00,WeatherDisplay:10.37,2013-06-10 04:19:00,
2013-06-10 00:24:00,52.8,50.8,30.17,North,0,0.0,0.0,93,0.00,CLR,,0.00,WeatherDisplay:10.37,2013-06-10 04:24:00,
2013-06-10 00:29:00,52.6,50.6,30.17,North,0,0.0,0.0,93,0.00,CLR,,0.00,WeatherDisplay:10.37,2013-06-10 04:29:00,
2013-06-10 00:34:00,52.1,50.1,30.17,North,0,0.0,0.0,93,0.00,CLR,,0.00,WeatherDisplay:10.37,2013-06-10 04:34:00,
2013-06-10 00:39:00,52.9,50.9,30.17,North,0,0.0,0.0,93,0.00,CLR,,0.00,WeatherDisplay:10.37,2013-06-10 04:39:00,
2013-06-10 00:44:00,53.1,51.1,30.17,North,0,0.0,0.0,93,0.00,CLR,,0.00,WeatherDisplay:10.37,2013-06-10 04:44:00,
2013-06-10 00:49:00,53.5,51.5,30.17,North,0,0.0,0.0,93,0.00,CLR,,0.00,WeatherDisplay:10.37,2013-06-10 04:49:00,
2013-06-10 00:54:00,52.3,50.3,30.17,North,0,0.0,0.0,93,0.00,CLR,,0.00,WeatherDisplay:10.37,2013-06-10 04:54:00,
2013-06-10 00:59:00,52.6,50.6,30.17,North,0,0.0,0.0,93,0.00,CLR,,0.00,WeatherDisplay:10.37,2013-06-10 04:59:00,
2013-06-10 01:04:00,52.1,51.0,30.17,North,0,0.0,0.0,96,0.00,CLR,,0.00,WeatherDisplay:10.37,2013-06-10 05:04:00,
2013-06-10 01:09:00,52.4,51.3,30.17,North,0,0.0,0.0,96,0.00,CLR,,0.00,WeatherDisplay:10.37,2013-06-10 05:09:00,
2013-06-10 01:14:00,52.0,50.9,30.17,North,0,0.0,0.0,96,0.00,CLR,,0.00,WeatherDisplay:10.37,2013-06-10 05:14:00,
2013-06-10 01:19:00,51.9,50.8,30.17,North,0,0.0,0.0,96,0.00,CLR,,0.00,WeatherDisplay:10.37,2013-06-10 05:19:00,
2013-06-10 01:24:00,52.1,51.0,30.17,North,0,0.0,0.0,96,0.00,CLR,,0.00,WeatherDisplay:10.37,2013-06-10 05:24:00,
2013-06-10 01:29:00,51.7,50.6,30.17,North,0,0.0,0.0,96,0.00,CLR,,0.00,WeatherDisplay:10.37,2013-06-10 05:29:00,
2013-06-10 01:34:00,51.6,50.5,30.17,North,0,0.0,0.0,96,0.00,CLR,,0.00,WeatherDisplay:10.37,2013-06-10 05:34:00,
2013-06-10 01:39:00,51.9,50.8,30.17,North,0,0.0,0.0,96,0.00,CLR,,0.00,WeatherDisplay:10.37,2013-06-10 05:39:00,
2013-06-10 01:44:00,51.3,50.2,30.17,North,0,0.0,0.0,96,0.00,CLR,,0.00,WeatherDisplay:10.37,2013-06-10 05:44:00,
2013-06-10 01:49:00,51.0,49.9,30.17,North,0,0.0,0.0,96,0.00,CLR,,0.00,WeatherDisplay:10.37,2013-06-10 05:49:00,
2013-06-10 01:54:00,51.0,49.9,30.17,North,0,0.0,0.0,96,0.00,CLR,,0.00,WeatherDisplay:10.37,2013-06-10 05:54:00,
2013-06-10 01:58:00,50.0,48.9,30.17,North,0,0.0,0.0,96,0.00,CLR,,0.00,WeatherDisplay:10.37,2013-06-10 05:58:00,
2013-06-10 02:03:00,50.3,49.2,30.18,North,0,0.0,0.0,96,0.00,CLR,,0.00,WeatherDisplay:10.37,2013-06-10 06:03:00,
2013-06-10 02:08:00,50.1,49.0,30.18,North,0,0.0,0.0,96,0.00,CLR,,0.00,WeatherDisplay:10.37,2013-06-10 06:08:00,
2013-06-10 02:13:00,49.5,48.4,30.18,North,0,0.0,0.0,96,0.00,CLR,,0.00,WeatherDisplay:10.37,2013-06-10 06:13:00,
2013-06-10 02:18:00,50.0,48.9,30.18,North,0,0.0,0.0,96,0.00,CLR,,0.00,WeatherDisplay:10.37,2013-06-10 06:18:00,
2013-06-10 02:23:00,49.8,48.7,30.18,North,0,0.0,0.0,96,0.00,CLR,,0.00,WeatherDisplay:10.37,2013-06-10 06:23:00,
2013-06-10 02:28:00,50.6,49.5,30.18,North,0,0.0,0.0,96,0.00,CLR,,0.00,WeatherDisplay:10.37,2013-06-10 06:28:00,
2013-06-10 02:33:00,51.8,50.7,30.18,North,0,0.0,0.0,96,0.00,CLR,,0.00,WeatherDisplay:10.37,2013-06-10 06:33:00,
2013-06-10 02:38:00,50.3,49.2,30.18,North,0,0.0,0.0,96,0.00,CLR,,0.00,WeatherDisplay:10.37,2013-06-10 06:38:00,
2013-06-10 02:43:00,49.7,48.6,30.18,North,0,0.0,0.0,96,0.00,CLR,,0.00,WeatherDisplay:10.37,2013-06-10 06:43:00,
2013-06-10 02:48:00,50.2,49.1,30.18,North,0,0.0,0.0,96,0.00,CLR,,0.00,WeatherDisplay:10.37,2013-06-10 06:48:00,
2013-06-10 02:53:00,48.5,47.4,30.18,North,0,0.0,0.0,96,0.00,CLR,,0.00,WeatherDisplay:10.37,2013-06-10 06:53:00,
2013-06-10 02:58:00,48.9,47.8,30.18,North,0,0.0,0.0,96,0.00,CLR,,0.00,WeatherDisplay:10.37,2013-06-10 06:58:00,
2013-06-10 03:03:00,50.5,50.5,30.18,North,0,0.0,0.0,100,0.00,CLR,,0.00,WeatherDisplay:10.37,2013-06-10 07:03:00,
2013-06-10 03:08:00,51.1,51.1,30.18,North,0,0.0,0.0,100,0.00,CLR,,0.00,WeatherDisplay:10.37,2013-06-10 07:08:00,
2013-06-10 03:13:00,51.0,51.0,30.18,North,0,0.0,0.0,100,0.00,CLR,,0.00,WeatherDisplay:10.37,2013-06-10 07:13:00,
2013-06-10 03:18:00,49.6,49.6,30.18,North,0,0.0,0.0,100,0.00,CLR,,0.00,WeatherDisplay:10.37,2013-06-10 07:18:00,
2013-06-10 03:23:00,49.3,49.3,30.18,North,0,0.0,0.0,100,0.00,CLR,,0.00,WeatherDisplay:10.37,2013-06-10 07:23:00,
2013-06-10 03:28:00,48.9,48.9,30.18,North,0,0.0,0.0,100,0.00,CLR,,0.00,WeatherDisplay:10.37,2013-06-10 07:28:00,
2013-06-10 03:33:00,49.1,49.1,30.18,North,0,0.0,0.0,100,0.00,CLR,,0.00,WeatherDisplay:10.37,2013-06-10 07:33:00,
2013-06-10 03:38:00,49.0,49.0,30.18,North,0,0.0,0.0,100,0.00,CLR,,0.00,WeatherDisplay:10.37,2013-06-10 07:38:00,
2013-06-10 03:43:00,48.9,48.9,30.18,North,0,0.0,0.0,100,0.00,CLR,,0.00,WeatherDisplay:10.37,2013-06-10 07:43:00,
2013-06-10 03:48:00,48.6,48.6,30.18,North,0,0.0,0.0,100,0.00,CLR,,0.00,WeatherDisplay:10.37,2013-06-10 07:48:00,
2013-06-10 03:53:00,49.1,49.1,30.18,North,0,0.0,0.0,100,0.00,CLR,,0.00,WeatherDisplay:10.37,2013-06-10 07:53:00,
2013-06-10 03:58:00,50.7,50.7,30.18,North,0,0.0,0.0,100,0.00,CLR,,0.00,WeatherDisplay:10.37,2013-06-10 07:58:00,
2013-06-10 04:03:00,49.6,48.5,30.18,North,0,0.0,0.0,96,0.00,CLR,,0.00,WeatherDisplay:10.37,2013-06-10 08:03:00,
2013-06-10 04:08:00,48.5,47.4,30.18,North,0,0.0,0.0,96,0.00,CLR,,0.00,WeatherDisplay:10.37,2013-06-10 08:08:00,
2013-06-10 04:13:00,48.3,47.2,30.18,North,0,0.0,0.0,96,0.00,CLR,,0.00,WeatherDisplay:10.37,2013-06-10 08:13:00,
2013-06-10 04:18:00,48.2,47.1,30.18,North,0,0.0,0.0,96,0.00,CLR,,0.00,WeatherDisplay:10.37,2013-06-10 08:18:00,
2013-06-10 04:23:00,48.4,47.3,30.18,North,0,0.0,0.0,96,0.00,CLR,,0.00,WeatherDisplay:10.37,2013-06-10 08:23:00,
2013-06-10 04:28:00,48.0,46.9,30.18,North,0,0.0,0.0,96,0.00,CLR,,0.00,WeatherDisplay:10.37,2013-06-10 08:28:00,
2013-06-10 04:33:00,48.1,47.0,30.18,North,0,0.0,0.0,96,0.00,CLR,,0.00,WeatherDisplay:10.37,2013-06-10 08:33:00,
2013-06-10 04:38:00,48.4,47.3,30.18,North,0,0.0,0.0,96,0.00,CLR,,0.00,WeatherDisplay:10.37,2013-06-10 08:38:00,
2013-06-10 04:43:00,50.2,49.1,30.18,North,0,0.0,0.0,96,0.00,CLR,,0.00,WeatherDisplay:10.37,2013-06-10 08:43:00,
2013-06-10 04:48:00,49.2,48.1,30.18,North,0,0.0,0.0,96,0.00,CLR,,0.00,WeatherDisplay:10.37,2013-06-10 08:48:00,
2013-06-10 04:53:00,48.4,47.3,30.18,North,0,0.0,0.0,96,0.00,CLR,,0.00,WeatherDisplay:10.37,2013-06-10 08:53:00,
2013-06-10 04:58:00,47.9,46.8,30.18,North,0,0.0,0.0,96,0.00,CLR,,0.00,WeatherDisplay:10.37,2013-06-10 08:58:00,
2013-06-10 05:03:00,47.8,46.7,30.20,North,0,0.0,0.0,96,0.00,CLR,,0.00,WeatherDisplay:10.37,2013-06-10 09:03:00,
2013-06-10 05:08:00,47.4,46.3,30.20,North,0,0.0,0.0,96,0.00,CLR,,0.00,WeatherDisplay:10.37,2013-06-10 09:08:00,
2013-06-10 05:13:00,49.1,48.0,30.20,North,0,0.0,0.0,96,0.00,CLR,,0.00,WeatherDisplay:10.37,2013-06-10 09:13:00,
2013-06-10 05:18:00,48.0,46.9,30.20,North,0,0.0,0.0,96,0.00,CLR,,0.00,WeatherDisplay:10.37,2013-06-10 09:18:00,
2013-06-10 05:23:00,47.0,45.9,30.20,North,0,0.0,0.0,96,0.00,CLR,,0.00,WeatherDisplay:10.37,2013-06-10 09:23:00,
2013-06-10 05:28:00,47.3,46.2,30.20,North,0,0.0,0.0,96,0.00,CLR,,0.00,WeatherDisplay:10.37,2013-06-10 09:28:00,
2013-06-10 05:33:00,47.9,46.8,30.20,North,0,0.0,0.0,96,0.00,CLR,,0.00,WeatherDisplay:10.37,2013-06-10 09:33:00,
2013-06-10 05:38:00,48.2,47.1,30.20,North,0,0.0,0.0,96,0.00,CLR,,0.00,WeatherDisplay:10.37,2013-06-10 09:38:00,
2013-06-10 05:43:00,48.7,47.6,30.20,North,0,0.0,0.0,96,0.00,CLR,,0.00,WeatherDisplay:10.37,2013-06-10 09:43:00,
2013-06-10 05:48:00,47.7,46.6,30.20,North,0,0.0,0.0,96,0.00,CLR,,0.00,WeatherDisplay:10.37,2013-06-10 09:48:00,
2013-06-10 05:53:00,47.8,46.7,30.20,North,0,0.0,0.0,96,0.00,CLR,,0.00,WeatherDisplay:10.37,2013-06-10 09:53:00,
2013-06-10 05:58:00,47.5,46.4,30.20,North,0,0.0,0.0,96,0.00,CLR,,0.00,WeatherDisplay:10.37,2013-06-10 09:58:00,
2013-06-10 06:03:00,47.4,46.3,30.20,North,0,0.0,0.0,96,0.00,CLR,,0.00,WeatherDisplay:10.37,2013-06-10 10:03:00,
2013-06-10 06:08:00,47.6,46.5,30.20,North,0,0.0,0.0,96,0.00,CLR,,0.00,WeatherDisplay:10.37,2013-06-10 10:08:00,
2013-06-10 06:13:00,47.7,46.6,30.20,North,0,0.0,0.0,96,0.00,CLR,,0.00,WeatherDisplay:10.37,2013-06-10 10:13:00,
2013-06-10 06:18:00,47.7,46.6,30.20,North,0,0.0,0.0,96,0.00,CLR,,0.00,WeatherDisplay:10.37,2013-06-10 10:18:00,
2013-06-10 06:23:00,48.3,47.2,30.20,North,0,0.0,0.0,96,0.00,CLR,,0.00,WeatherDisplay:10.37,2013-06-10 10:23:00,
2013-06-10 06:28:00,48.1,47.0,30.20,North,0,0.0,0.0,96,0.00,CLR,,0.00,WeatherDisplay:10.37,2013-06-10 10:28:00,
2013-06-10 06:33:00,48.0,46.9,30.20,North,0,0.0,0.0,96,0.00,CLR,,0.00,WeatherDisplay:10.37,2013-06-10 10:33:00,
2013-06-10 06:38:00,48.3,47.2,30.20,North,0,0.0,0.0,96,0.00,CLR,,0.00,WeatherDisplay:10.37,2013-06-10 10:38:00,
2013-06-10 06:43:00,48.7,47.6,30.20,North,0,0.0,0.0,96,0.00,CLR,,0.00,WeatherDisplay:10.37,2013-06-10 10:43:00,
2013-06-10 06:48:00,49.3,48.2,30.20,North,0,0.0,0.0,96,0.00,CLR,,0.00,WeatherDisplay:10.37,2013-06-10 10:48:00,
2013-06-10 06:53:00,49.4,48.3,30.20,North,0,0.0,0.0,96,0.00,CLR,,0.00,WeatherDisplay:10.37,2013-06-10 10:53:00,
2013-06-10 06:58:00,50.2,49.1,30.20,North,0,0.0,0.0,96,0.00,CLR,,0.00,WeatherDisplay:10.37,2013-06-10 10:58:00,
2013-06-10 07:03:00,50.8,48.0,30.21,North,0,0.0,0.0,90,0.00,CLR,,0.00,WeatherDisplay:10.37,2013-06-10 11:03:00,
2013-06-10 07:08:00,51.4,48.6,30.21,North,0,0.0,0.0,90,0.00,CLR,,0.00,WeatherDisplay:10.37,2013-06-10 11:08:00,
2013-06-10 07:13:00,52.2,49.4,30.21,North,0,0.0,0.0,90,0.00,CLR,,0.00,WeatherDisplay:10.37,2013-06-10 11:13:00,
2013-06-10 07:18:00,53.3,50.4,30.21,North,0,0.0,0.0,90,0.00,CLR,,0.00,WeatherDisplay:10.37,2013-06-10 11:18:00,
2013-06-10 07:23:00,54.2,51.3,30.21,North,0,0.0,0.0,90,0.00,CLR,,0.00,WeatherDisplay:10.37,2013-06-10 11:23:00,
2013-06-10 07:28:00,54.2,51.3,30.21,North,0,0.0,0.0,90,0.00,CLR,,0.00,WeatherDisplay:10.37,2013-06-10 11:28:00,
2013-06-10 07:33:00,54.5,51.6,30.21,North,0,0.0,0.0,90,0.00,CLR,,0.00,WeatherDisplay:10.37,2013-06-10 11:33:00,
2013-06-10 07:38:00,54.6,51.7,30.21,North,0,0.0,0.0,90,0.00,CLR,,0.00,WeatherDisplay:10.37,2013-06-10 11:38:00,
2013-06-10 07:43:00,55.4,52.5,30.21,North,0,0.0,0.0,90,0.00,CLR,,0.00,WeatherDisplay:10.37,2013-06-10 11:43:00,
2013-06-10 07:48:00,55.2,52.3,30.21,North,0,0.0,0.0,90,0.00,CLR,,0.00,WeatherDisplay:10.37,2013-06-10 11:48:00,
2013-06-10 07:53:00,55.8,52.9,30.21,North,0,0.0,0.0,90,0.00,CLR,,0.00,WeatherDisplay:10.37,2013-06-10 11:53:00,
2013-06-10 07:58:00,56.0,53.1,30.21,North,0,0.0,0.0,90,0.00,CLR,,0.00,WeatherDisplay:10.37,2013-06-10 11:58:00,
2013-06-10 08:03:00,56.7,51.6,30.21,North,0,0.0,0.0,83,0.00,CLR,,0.00,WeatherDisplay:10.37,2013-06-10 12:03:00,
2013-06-10 08:08:00,57.1,52.0,30.21,North,0,0.0,0.0,83,0.00,CLR,,0.00,WeatherDisplay:10.37,2013-06-10 12:08:00,
2013-06-10 08:13:00,57.5,52.4,30.21,North,0,0.0,0.0,83,0.00,CLR,,0.00,WeatherDisplay:10.37,2013-06-10 12:13:00,
2013-06-10 08:18:00,58.2,53.1,30.21,North,0,0.0,0.0,83,0.00,CLR,,0.00,WeatherDisplay:10.37,2013-06-10 12:18:00,
2013-06-10 08:23:00,58.6,53.5,30.21,North,0,0.0,0.0,83,0.00,CLR,,0.00,WeatherDisplay:10.37,2013-06-10 12:23:00,
2013-06-10 08:28:00,59.0,53.8,30.21,North,0,0.0,0.0,83,0.00,CLR,,0.00,WeatherDisplay:10.37,2013-06-10 12:28:00,
2013-06-10 08:33:00,59.0,53.8,30.21,North,0,0.0,0.0,83,0.00,CLR,,0.00,WeatherDisplay:10.37,2013-06-10 12:33:00,
2013-06-10 08:38:00,59.3,54.1,30.21,North,0,0.0,0.0,83,0.00,CLR,,0.00,WeatherDisplay:10.37,2013-06-10 12:38:00,
2013-06-10 08:43:00,59.2,54.0,30.21,North,0,0.0,0.0,83,0.00,CLR,,0.00,WeatherDisplay:10.37,2013-06-10 12:43:00,
2013-06-10 08:48:00,59.6,54.4,30.21,North,0,0.0,0.0,83,0.00,CLR,,0.00,WeatherDisplay:10.37,2013-06-10 12:48:00,
2013-06-10 08:53:00,59.4,54.2,30.21,North,0,0.0,0.0,83,0.00,CLR,,0.00,WeatherDisplay:10.37,2013-06-10 12:53:00,
2013-06-10 08:58:00,59.4,54.2,30.21,North,0,0.0,0.0,83,0.00,CLR,,0.00,WeatherDisplay:10.37,2013-06-10 12:58:00,
2013-06-10 09:03:00,59.8,52.6,30.21,North,0,0.0,0.0,77,0.00,CLR,,0.00,WeatherDisplay:10.37,2013-06-10 13:03:00,
2013-06-10 09:08:00,60.2,53.0,30.21,North,0,0.0,0.0,77,0.00,CLR,,0.00,WeatherDisplay:10.37,2013-06-10 13:08:00,
2013-06-10 09:13:00,60.2,53.0,30.21,North,0,0.0,0.0,77,0.00,CLR,,0.00,WeatherDisplay:10.37,2013-06-10 13:13:00,
2013-06-10 09:18:00,60.5,53.3,30.21,North,0,0.0,0.0,77,0.00,CLR,,0.00,WeatherDisplay:10.37,2013-06-10 13:18:00,
2013-06-10 09:23:00,60.6,53.3,30.21,North,0,0.0,0.0,77,0.00,CLR,,0.00,WeatherDisplay:10.37,2013-06-10 13:23:00,
2013-06-10 09:28:00,60.7,53.4,30.21,North,0,0.0,0.0,77,0.00,CLR,,0.00,WeatherDisplay:10.37,2013-06-10 13:28:00,
2013-06-10 09:33:00,61.3,54.0,30.21,North,0,0.0,0.0,77,0.00,CLR,,0.00,WeatherDisplay:10.37,2013-06-10 13:33:00,
2013-06-10 09:38:00,61.0,53.7,30.21,North,0,0.0,0.0,77,0.00,CLR,,0.00,WeatherDisplay:10.37,2013-06-10 13:38:00,
2013-06-10 09:43:00,61.2,53.9,30.21,North,0,0.0,0.0,77,0.00,CLR,,0.00,WeatherDisplay:10.37,2013-06-10 13:43:00,
2013-06-10 09:48:00,61.6,54.3,30.21,North,0,0.0,0.0,77,0.00,CLR,,0.00,WeatherDisplay:10.37,2013-06-10 13:48:00,
2013-06-10 09:53:00,61.6,54.3,30.21,North,0,0.0,0.0,77,0.00,CLR,,0.00,WeatherDisplay:10.37,2013-06-10 13:53:00,
2013-06-10 09:58:00,62.3,55.0,30.21,North,0,0.0,0.0,77,0.00,CLR,,0.00,WeatherDisplay:10.37,2013-06-10 13:58:00,
2013-06-10 10:03:00,61.9,52.8,30.20,North,0,0.0,0.0,72,0.00,CLR,,0.00,WeatherDisplay:10.37,2013-06-10 14:03:00,
2013-06-10 10:08:00,62.1,53.0,30.20,North,0,0.0,0.0,72,0.00,CLR,,0.00,WeatherDisplay:10.37,2013-06-10 14:08:00,
2013-06-10 10:13:00,63.0,53.8,30.20,North,0,0.0,0.0,72,0.00,CLR,,0.00,WeatherDisplay:10.37,2013-06-10 14:13:00,
2013-06-10 10:18:00,63.3,54.1,30.20,North,0,0.0,0.0,72,0.00,CLR,,0.00,WeatherDisplay:10.37,2013-06-10 14:18:00,
2013-06-10 10:23:00,63.7,54.5,30.20,North,0,0.0,0.0,72,0.00,CLR,,0.00,WeatherDisplay:10.37,2013-06-10 14:23:00,
2013-06-10 10:28:00,63.5,54.3,30.20,North,0,0.0,0.0,72,0.00,CLR,,0.00,WeatherDisplay:10.37,2013-06-10 14:28:00,
2013-06-10 10:33:00,63.4,54.2,30.20,North,0,0.0,0.0,72,0.00,CLR,,0.00,WeatherDisplay:10.37,2013-06-10 14:33:00,
2013-06-10 10:38:00,63.5,54.3,30.20,North,0,1.1,1.1,72,0.00,CLR,,0.00,WeatherDisplay:10.37,2013-06-10 14:38:00,
2013-06-10 10:43:00,63.8,54.6,30.20,North,0,0.0,0.0,72,0.00,CLR,,0.00,WeatherDisplay:10.37,2013-06-10 14:43:00,
2013-06-10 10:48:00,63.9,54.7,30.20,North,0,1.1,1.1,72,0.00,CLR,,0.00,WeatherDisplay:10.37,2013-06-10 14:48:00,
2013-06-10 10:53:00,64.0,54.8,30.20,North,0,1.0,1.0,72,0.00,CLR,,0.00,WeatherDisplay:10.37,2013-06-10 14:53:00,
2013-06-10 10:58:00,64.4,55.2,30.20,North,0,0.0,0.1,72,0.00,CLR,,0.00,WeatherDisplay:10.37,2013-06-10 14:58:00,
2013-06-10 11:03:00,65.1,53.0,30.20,North,0,1.0,1.0,65,0.00,CLR,,0.00,WeatherDisplay:10.37,2013-06-10 15:03:00,
2013-06-10 11:08:00,65.0,52.9,30.20,North,0,1.1,0.0,65,0.00,CLR,,0.00,WeatherDisplay:10.37,2013-06-10 15:08:00,
2013-06-10 11:13:00,64.8,52.8,30.20,North,0,1.1,1.1,65,0.00,CLR,,0.00,WeatherDisplay:10.37,2013-06-10 15:13:00,
2013-06-10 11:18:00,64.8,52.8,30.20,North,9,0.0,0.0,65,0.00,CLR,,0.00,WeatherDisplay:10.37,2013-06-10 15:18:00,
2013-06-10 11:23:00,64.7,52.7,30.20,North,9,0.0,0.0,65,0.00,CLR,,0.00,WeatherDisplay:10.37,2013-06-10 15:23:00,
2013-06-10 11:28:00,64.9,52.8,30.20,North,9,0.0,0.0,65,0.00,CLR,,0.00,WeatherDisplay:10.37,2013-06-10 15:28:00,
2013-06-10 11:33:00,65.1,53.0,30.20,North,9,0.0,0.0,65,0.00,CLR,,0.00,WeatherDisplay:10.37,2013-06-10 15:33:00,
2013-06-10 11:38:00,64.9,52.8,30.20,North,9,0.0,0.0,65,0.00,CLR,,0.00,WeatherDisplay:10.37,2013-06-10 15:38:00,
2013-06-10 11:43:00,65.1,53.0,30.20,North,9,0.0,0.0,65,0.00,CLR,,0.00,WeatherDisplay:10.37,2013-06-10 15:43:00,
2013-06-10 11:48:00,65.3,53.2,30.20,North,9,0.0,0.0,65,0.00,CLR,,0.00,WeatherDisplay:10.37,2013-06-10 15:48:00,
2013-06-10 11:53:00,65.3,53.2,30.20,NE,38,0.0,0.0,65,0.00,CLR,,0.00,WeatherDisplay:10.37,2013-06-10 15:53:00,
2013-06-10 11:58:00,65.3,53.2,30.20,NE,37,0.0,0.0,65,0.00,CLR,,0.00,WeatherDisplay:10.37,2013-06-10 15:58:00,
2013-06-10 12:03:00,65.1,52.2,30.20,NE,38,0.0,0.0,63,0.00,CLR,,0.00,WeatherDisplay:10.37,2013-06-10 16:03:00,
2013-06-10 12:08:00,65.1,52.2,30.20,NE,37,0.0,0.0,63,0.00,CLR,,0.00,WeatherDisplay:10.37,2013-06-10 16:08:00,
2013-06-10 12:13:00,65.1,52.2,30.20,NE,37,0.0,0.0,63,0.00,CLR,,0.00,WeatherDisplay:10.37,2013-06-10 16:13:00,
2013-06-10 12:18:00,65.2,52.3,30.20,NE,37,0.0,0.0,63,0.00,CLR,,0.00,WeatherDisplay:10.37,2013-06-10 16:18:00,
2013-06-10 12:23:00,65.5,52.6,30.20,NE,37,0.0,0.0,63,0.00,CLR,,0.00,WeatherDisplay:10.37,2013-06-10 16:23:00,
2013-06-10 12:28:00,65.7,52.8,30.20,NE,37,0.0,0.0,63,0.00,CLR,,0.00,WeatherDisplay:10.37,2013-06-10 16:28:00,
2013-06-10 12:33:00,65.8,52.9,30.20,NE,37,0.0,0.0,63,0.00,CLR,,0.00,WeatherDisplay:10.37,2013-06-10 16:33:00,
2013-06-10 12:38:00,65.7,52.8,30.20,NE,37,0.0,0.0,63,0.00,CLR,,0.00,WeatherDisplay:10.37,2013-06-10 16:38:00,
2013-06-10 12:43:00,65.8,52.9,30.20,NE,37,0.0,0.0,63,0.00,CLR,,0.00,WeatherDisplay:10.37,2013-06-10 16:43:00,
2013-06-10 12:48:00,66.2,53.2,30.20,NE,37,0.0,0.0,63,0.00,CLR,,0.00,WeatherDisplay:10.37,2013-06-10 16:48:00,
2013-06-10 12:53:00,66.5,53.5,30.20,NE,37,0.0,0.0,63,0.00,CLR,,0.00,WeatherDisplay:10.37,2013-06-10 16:53:00,
2013-06-10 12:58:00,66.3,53.3,30.20,NE,37,0.0,0.0,63,0.00,CLR,,0.00,WeatherDisplay:10.37,2013-06-10 16:58:00,
2013-06-10 13:03:00,65.9,52.9,30.20,NE,37,0.0,0.0,63,0.00,CLR,,0.00,WeatherDisplay:10.37,2013-06-10 17:03:00,
2013-06-10 13:08:00,65.8,52.9,30.20,NE,37,0.0,0.0,63,0.00,CLR,,0.00,WeatherDisplay:10.37,2013-06-10 17:08:00,
2013-06-10 13:13:00,65.6,52.2,30.19,NE,37,0.0,0.0,62,0.00,FEW,,0.00,WeatherDisplay:10.37,2013-06-10 17:13:00,
2013-06-10 13:18:00,65.9,52.5,30.19,NE,37,0.0,0.0,62,0.00,FEW,,0.00,WeatherDisplay:10.37,2013-06-10 17:18:00,
2013-06-10 13:23:00,65.7,52.3,30.19,NE,37,0.0,0.0,62,0.00,FEW,,0.00,WeatherDisplay:10.37,2013-06-10 17:23:00,
2013-06-10 13:28:00,65.9,52.5,30.19,NE,37,0.0,0.0,62,0.00,FEW,,0.00,WeatherDisplay:10.37,2013-06-10 17:28:00,
2013-06-10 13:33:00,66.2,52.8,30.19,NE,40,0.0,0.0,62,0.00,FEW,,0.00,WeatherDisplay:10.37,2013-06-10 17:33:00,
2013-06-10 13:38:00,66.2,52.8,30.19,NE,40,0.0,0.0,62,0.00,FEW,,0.00,WeatherDisplay:10.37,2013-06-10 17:38:00,
2013-06-10 13:43:00,66.3,52.9,30.19,NE,40,0.0,0.0,62,0.00,FEW,,0.00,WeatherDisplay:10.37,2013-06-10 17:43:00,
2013-06-10 13:48:00,66.5,53.1,30.19,NE,40,0.0,0.0,62,0.00,FEW,,0.00,WeatherDisplay:10.37,2013-06-10 17:48:00,
2013-06-10 13:53:00,66.2,52.8,30.19,NE,40,0.0,0.0,62,0.00,FEW,,0.00,WeatherDisplay:10.37,2013-06-10 17:53:00,
2013-06-10 13:58:00,66.1,52.7,30.19,NE,40,0.0,0.0,62,0.00,FEW,,0.00,WeatherDisplay:10.37,2013-06-10 17:58:00,
2013-06-10 14:03:00,66.4,53.0,30.19,NE,40,0.0,0.0,62,0.00,FEW,,0.00,WeatherDisplay:10.37,2013-06-10 18:03:00,
2013-06-10 14:08:00,66.5,53.1,30.19,NE,40,0.0,0.0,62,0.00,FEW,,0.00,WeatherDisplay:10.37,2013-06-10 18:08:00,
2013-06-10 14:13:00,66.4,51.2,30.18,NE,40,0.0,0.0,58,0.00,CLR,,0.00,WeatherDisplay:10.37,2013-06-10 18:13:00,
2013-06-10 14:18:00,66.3,51.1,30.18,NE,40,0.0,0.0,58,0.00,CLR,,0.00,WeatherDisplay:10.37,2013-06-10 18:18:00,
2013-06-10 14:23:00,66.4,51.2,30.18,NE,40,0.0,0.0,58,0.00,CLR,,0.00,WeatherDisplay:10.37,2013-06-10 18:23:00,
2013-06-10 14:28:00,66.2,51.0,30.18,NE,40,0.0,0.0,58,0.00,CLR,,0.00,WeatherDisplay:10.37,2013-06-10 18:28:00,
2013-06-10 14:33:00,66.1,50.9,30.18,NE,40,0.0,0.0,58,0.00,CLR,,0.00,WeatherDisplay:10.37,2013-06-10 18:33:00,
2013-06-10 14:38:00,65.9,50.7,30.18,NE,40,0.0,0.0,58,0.00,CLR,,0.00,WeatherDisplay:10.37,2013-06-10 18:38:00,
2013-06-10 14:43:00,65.8,50.6,30.18,NE,40,0.0,0.0,58,0.00,CLR,,0.00,WeatherDisplay:10.37,2013-06-10 18:43:00,
2013-06-10 14:48:00,65.8,50.6,30.18,NE,40,0.0,0.0,58,0.00,CLR,,0.00,WeatherDisplay:10.37,2013-06-10 18:48:00,
2013-06-10 14:53:00,65.6,50.4,30.18,NE,40,0.0,0.0,58,0.00,CLR,,0.00,WeatherDisplay:10.37,2013-06-10 18:53:00,
2013-06-10 14:58:00,65.7,50.5,30.18,NE,40,0.0,0.0,58,0.00,CLR,,0.00,WeatherDisplay:10.37,2013-06-10 18:58:00,
2013-06-10 15:03:00,65.5,50.3,30.18,NE,40,0.0,0.0,58,0.00,CLR,,0.00,WeatherDisplay:10.37,2013-06-10 19:03:00,
2013-06-10 15:08:00,65.3,50.1,30.18,NE,40,0.0,0.0,58,0.00,CLR,,0.00,WeatherDisplay:10.37,2013-06-10 19:08:00,
2013-06-10 15:13:00,65.3,53.2,30.17,NE,40,0.0,0.0,65,0.00,CLR,,0.00,WeatherDisplay:10.37,2013-06-10 19:13:00,
2013-06-10 15:18:00,65.1,53.0,30.17,NE,40,0.0,0.0,65,0.00,CLR,,0.00,WeatherDisplay:10.37,2013-06-10 19:18:00,
2013-06-10 15:23:00,65.2,53.1,30.17,NE,40,0.0,0.0,65,0.00,CLR,,0.00,WeatherDisplay:10.37,2013-06-10 19:23:00,
2013-06-10 15:28:00,65.1,53.0,30.17,NE,40,0.0,0.0,65,0.00,CLR,,0.00,WeatherDisplay:10.37,2013-06-10 19:28:00,
2013-06-10 15:33:00,64.9,52.8,30.17,NE,40,0.0,0.0,65,0.00,CLR,,0.00,WeatherDisplay:10.37,2013-06-10 19:33:00,
2013-06-10 15:39:00,65.1,53.0,30.17,NE,40,0.0,0.0,65,0.00,CLR,,0.00,WeatherDisplay:10.37,2013-06-10 19:39:00,
2013-06-10 15:44:00,64.8,52.8,30.17,NE,40,0.0,0.0,65,0.00,CLR,,0.00,WeatherDisplay:10.37,2013-06-10 19:44:00,
2013-06-10 15:49:00,64.8,52.8,30.17,NE,40,0.0,0.0,65,0.00,CLR,,0.00,WeatherDisplay:10.37,2013-06-10 19:49:00,
2013-06-10 15:54:00,64.8,52.8,30.17,NE,40,0.0,0.0,65,0.00,CLR,,0.00,WeatherDisplay:10.37,2013-06-10 19:54:00,
2013-06-10 15:59:00,64.6,52.6,30.17,NE,40,0.0,0.0,65,0.00,CLR,,0.00,WeatherDisplay:10.37,2013-06-10 19:59:00,
2013-06-10 16:04:00,64.6,52.6,30.17,NE,40,0.0,0.0,65,0.00,CLR,,0.00,WeatherDisplay:10.37,2013-06-10 20:04:00,
2013-06-10 16:09:00,64.3,52.3,30.17,NNW,343,1.1,1.1,65,0.00,CLR,,0.00,WeatherDisplay:10.37,2013-06-10 20:09:00,
2013-06-10 16:14:00,64.1,53.7,30.15,NNW,343,0.0,0.0,69,0.00,BKN,,0.00,WeatherDisplay:10.37,2013-06-10 20:14:00,
2013-06-10 16:19:00,63.9,53.5,30.15,NNW,343,0.0,0.0,69,0.00,BKN,,0.00,WeatherDisplay:10.37,2013-06-10 20:19:00,
2013-06-10 16:24:00,63.8,53.4,30.15,NNW,343,0.0,0.0,69,0.00,BKN,,0.00,WeatherDisplay:10.37,2013-06-10 20:24:00,
2013-06-10 16:29:00,63.7,53.3,30.15,NNW,343,0.0,0.0,69,0.00,BKN,,0.00,WeatherDisplay:10.37,2013-06-10 20:29:00,
2013-06-10 16:34:00,63.8,53.4,30.15,NNW,343,0.0,0.0,69,0.00,BKN,,0.00,WeatherDisplay:10.37,2013-06-10 20:34:00,
2013-06-10 16:39:00,63.6,53.2,30.15,NNW,343,0.0,0.0,69,0.00,BKN,,0.00,WeatherDisplay:10.37,2013-06-10 20:39:00,
2013-06-10 16:44:00,63.6,53.2,30.15,NNW,343,0.0,0.0,69,0.00,BKN,,0.00,WeatherDisplay:10.37,2013-06-10 20:44:00,
2013-06-10 16:49:00,63.7,53.3,30.15,NNW,343,0.0,0.0,69,0.00,BKN,,0.00,WeatherDisplay:10.37,2013-06-10 20:49:00,
2013-06-10 16:54:00,63.0,52.7,30.15,NNW,343,0.0,0.0,69,0.00,BKN,,0.00,WeatherDisplay:10.37,2013-06-10 20:54:00,
2013-06-10 16:59:00,63.1,52.8,30.15,NNW,343,0.0,0.0,69,0.00,BKN,,0.00,WeatherDisplay:10.37,2013-06-10 20:59:00,
2013-06-10 17:04:00,62.9,54.5,30.14,NNW,343,0.0,0.0,74,0.00,-RA,,0.00,WeatherDisplay:10.37,2013-06-10 21:04:00,
2013-06-10 17:09:00,62.8,54.4,30.14,NNW,343,0.0,0.0,74,0.00,-RA,,0.00,WeatherDisplay:10.37,2013-06-10 21:09:00,
2013-06-10 17:14:00,62.6,54.2,30.14,NNW,343,0.0,0.0,74,0.00,-RA,,0.00,WeatherDisplay:10.37,2013-06-10 21:14:00,
2013-06-10 17:19:00,62.4,54.0,30.14,NNW,343,0.0,0.0,74,0.00,-RA,,0.00,WeatherDisplay:10.37,2013-06-10 21:19:00,
2013-06-10 17:24:00,61.9,53.5,30.14,NNW,343,0.0,0.0,74,0.00,-RA,,0.00,WeatherDisplay:10.37,2013-06-10 21:24:00,
2013-06-10 17:29:00,62.0,53.6,30.14,NNW,343,0.0,0.0,74,0.00,-RA,,0.00,WeatherDisplay:10.37,2013-06-10 21:29:00,
2013-06-10 17:34:00,61.9,53.5,30.14,NNW,343,0.0,0.0,74,0.00,-RA,,0.00,WeatherDisplay:10.37,2013-06-10 21:34:00,
2013-06-10 17:39:00,61.6,53.2,30.14,NNW,343,0.0,0.0,74,0.00,-RA,,0.00,WeatherDisplay:10.37,2013-06-10 21:39:00,
2013-06-10 17:44:00,61.3,52.9,30.14,NNW,343,0.0,0.0,74,0.00,-RA,,0.00,WeatherDisplay:10.37,2013-06-10 21:44:00,
2013-06-10 17:49:00,61.4,53.0,30.14,NNW,343,0.0,0.0,74,0.00,-RA,,0.00,WeatherDisplay:10.37,2013-06-10 21:49:00,
2013-06-10 17:54:00,61.1,52.7,30.14,NNW,343,0.0,0.1,74,0.00,-RA,,0.00,WeatherDisplay:10.37,2013-06-10 21:54:00,
2013-06-10 17:59:00,61.0,52.7,30.14,NNW,345,0.0,0.0,74,0.00,-RA,,0.00,WeatherDisplay:10.37,2013-06-10 21:59:00,
2013-06-10 18:04:00,60.7,57.4,30.12,NNW,345,0.0,0.0,89,0.00,-RA,,0.00,WeatherDisplay:10.37,2013-06-10 22:04:00,
2013-06-10 18:09:00,60.4,57.1,30.12,NNW,345,0.0,0.0,89,0.00,-RA,,0.00,WeatherDisplay:10.37,2013-06-10 22:09:00,
2013-06-10 18:14:00,60.4,57.1,30.12,NNW,345,0.0,0.0,89,0.00,-RA,,0.00,WeatherDisplay:10.37,2013-06-10 22:14:00,
2013-06-10 18:19:00,60.1,56.8,30.12,NNW,345,0.0,0.0,89,0.00,-RA,,0.00,WeatherDisplay:10.37,2013-06-10 22:19:00,
2013-06-10 18:24:00,59.8,56.6,30.12,NNW,345,0.0,0.0,89,0.00,-RA,,0.00,WeatherDisplay:10.37,2013-06-10 22:24:00,
2013-06-10 18:29:00,59.8,56.6,30.12,NNW,345,0.0,0.0,89,0.00,-RA,,0.01,WeatherDisplay:10.37,2013-06-10 22:29:00,
2013-06-10 18:34:00,59.9,56.6,30.12,NNW,345,0.0,0.0,89,0.01,-RA,,0.01,WeatherDisplay:10.37,2013-06-10 22:34:00,
2013-06-10 18:39:00,59.5,56.3,30.12,NNW,345,0.0,0.0,89,0.01,-RA,,0.01,WeatherDisplay:10.37,2013-06-10 22:39:00,
2013-06-10 18:44:00,59.2,56.0,30.12,NNW,345,0.0,0.0,89,0.01,-RA,,0.01,WeatherDisplay:10.37,2013-06-10 22:44:00,
2013-06-10 18:49:00,59.1,55.9,30.12,NNW,345,0.0,0.0,89,0.01,-RA,,0.01,WeatherDisplay:10.37,2013-06-10 22:49:00,
2013-06-10 18:54:00,58.7,55.5,30.12,NNW,345,0.0,0.0,89,0.01,-RA,,0.01,WeatherDisplay:10.37,2013-06-10 22:54:00,
2013-06-10 18:59:00,58.6,55.4,30.12,NNW,345,0.0,0.0,89,0.02,-RA,,0.02,WeatherDisplay:10.37,2013-06-10 22:59:00,
2013-06-10 19:04:00,58.9,56.6,30.11,NNW,345,0.0,0.0,92,0.02,-RA,,0.02,WeatherDisplay:10.37,2013-06-10 23:04:00,
2013-06-10 19:09:00,59.8,57.5,30.11,NNW,345,0.0,0.0,92,0.02,-RA,,0.02,WeatherDisplay:10.37,2013-06-10 23:09:00,
2013-06-10 19:14:00,59.2,56.9,30.11,NNW,345,0.0,0.0,92,0.02,-RA,,0.02,WeatherDisplay:10.37,2013-06-10 23:14:00,
2013-06-10 19:19:00,59.0,56.7,30.11,NNW,345,0.0,0.0,92,0.02,-RA,,0.02,WeatherDisplay:10.37,2013-06-10 23:19:00,
2013-06-10 19:24:00,59.3,57.0,30.11,NNW,345,0.0,0.0,92,0.02,-RA,,0.02,WeatherDisplay:10.37,2013-06-10 23:24:00,
2013-06-10 19:29:00,58.9,56.6,30.11,NNW,345,1.1,1.1,92,0.02,-RA,,0.02,WeatherDisplay:10.37,2013-06-10 23:29:00,
2013-06-10 19:34:00,58.7,56.4,30.11,NNW,345,0.0,0.0,92,0.01,-RA,,0.02,WeatherDisplay:10.37,2013-06-10 23:34:00,
2013-06-10 19:39:00,58.7,56.4,30.11,NNW,345,1.1,1.1,92,0.01,-RA,,0.02,WeatherDisplay:10.37,2013-06-10 23:39:00,
2013-06-10 19:44:00,58.6,56.3,30.11,NNW,345,0.0,0.0,92,0.01,-RA,,0.02,WeatherDisplay:10.37,2013-06-10 23:44:00,
2013-06-10 19:49:00,57.8,55.5,30.11,NNW,345,0.0,0.0,92,0.01,-RA,,0.02,WeatherDisplay:10.37,2013-06-10 23:49:00,
2013-06-10 19:54:00,57.6,55.3,30.11,NNW,345,0.0,0.0,92,0.01,-RA,,0.02,WeatherDisplay:10.37,2013-06-10 23:54:00,
2013-06-10 19:59:00,57.6,55.3,30.11,NNW,345,0.0,0.0,92,0.00,-RA,,0.02,WeatherDisplay:10.37,2013-06-10 23:59:00,
2013-06-10 20:04:00,57.3,56.2,30.09,NNW,345,1.1,0.0,96,0.01,-RA,,0.03,WeatherDisplay:10.37,2013-06-11 00:04:00,
2013-06-10 20:09:00,57.5,56.4,30.09,NNW,345,0.0,0.0,96,0.01,-RA,,0.03,WeatherDisplay:10.37,2013-06-11 00:09:00,
2013-06-10 20:14:00,57.3,56.2,30.09,NNW,345,0.0,0.0,96,0.01,-RA,,0.03,WeatherDisplay:10.37,2013-06-11 00:14:00,
2013-06-10 20:19:00,57.3,56.2,30.09,NNW,345,0.0,0.0,96,0.01,-RA,,0.03,WeatherDisplay:10.37,2013-06-11 00:19:00,
2013-06-10 20:24:00,57.3,56.2,30.09,NNW,345,2.3,2.3,96,0.01,-RA,,0.03,WeatherDisplay:10.37,2013-06-11 00:24:00,
2013-06-10 20:29:00,57.2,56.1,30.09,NNW,345,1.1,0.0,96,0.01,-RA,,0.03,WeatherDisplay:10.37,2013-06-11 00:29:00,
2013-06-10 20:34:00,57.2,56.1,30.09,NNW,345,1.1,1.1,96,0.01,-RA,,0.03,WeatherDisplay:10.37,2013-06-11 00:34:00,
2013-06-10 20:39:00,57.1,56.0,30.09,NNW,345,1.1,0.0,96,0.01,-RA,,0.03,WeatherDisplay:10.37,2013-06-11 00:39:00,
2013-06-10 20:44:00,57.1,56.0,30.09,NNW,345,0.0,0.0,96,0.01,-RA,,0.03,WeatherDisplay:10.37,2013-06-11 00:44:00,
2013-06-10 20:49:00,57.0,55.9,30.09,NNW,345,0.0,0.0,96,0.01,-RA,,0.03,WeatherDisplay:10.37,2013-06-11 00:49:00,
2013-06-10 20:54:00,56.9,55.8,30.09,NNW,345,1.1,1.1,96,0.01,-RA,,0.03,WeatherDisplay:10.37,2013-06-11 00:54:00,
2013-06-10 20:59:00,56.7,55.6,30.09,NNW,345,0.0,0.0,96,0.01,-RA,,0.03,WeatherDisplay:10.37,2013-06-11 00:59:00,
2013-06-10 21:04:00,56.0,54.9,30.09,NNW,345,0.0,0.0,96,0.00,-RA,,0.03,WeatherDisplay:10.37,2013-06-11 01:04:00,
2013-06-10 21:09:00,55.9,54.8,30.09,NNW,345,0.0,0.0,96,0.00,-RA,,0.03,WeatherDisplay:10.37,2013-06-11 01:09:00,
2013-06-10 21:14:00,55.7,54.6,30.08,NNW,345,0.0,0.0,96,0.00,-RA,,0.03,WeatherDisplay:10.37,2013-06-11 01:14:00,
2013-06-10 21:19:00,55.6,54.5,30.08,NNW,345,0.0,0.0,96,0.00,-RA,,0.03,WeatherDisplay:10.37,2013-06-11 01:19:00,
2013-06-10 21:24:00,55.5,54.4,30.08,NNW,345,0.0,0.0,96,0.00,-RA,,0.03,WeatherDisplay:10.37,2013-06-11 01:24:00,
2013-06-10 21:29:00,55.5,54.4,30.08,NNW,345,0.0,0.0,96,0.01,-RA,,0.04,WeatherDisplay:10.37,2013-06-11 01:29:00,
2013-06-10 21:34:00,55.2,54.1,30.08,NNW,345,0.0,0.0,96,0.01,-RA,,0.04,WeatherDisplay:10.37,2013-06-11 01:34:00,
2013-06-10 21:39:00,55.2,54.1,30.08,NNW,345,0.0,0.0,96,0.01,-RA,,0.04,WeatherDisplay:10.37,2013-06-11 01:39:00,
2013-06-10 21:44:00,55.4,54.3,30.08,NNW,345,0.0,0.0,96,0.01,-RA,,0.04,WeatherDisplay:10.37,2013-06-11 01:44:00,
2013-06-10 21:49:00,55.4,54.3,30.08,NNW,345,1.1,1.1,96,0.01,-RA,,0.04,WeatherDisplay:10.37,2013-06-11 01:49:00,
2013-06-10 21:54:00,55.8,54.7,30.08,NNW,345,0.0,0.0,96,0.01,-RA,,0.04,WeatherDisplay:10.37,2013-06-11 01:54:00,
2013-06-10 21:59:00,55.9,54.8,30.08,NNW,345,0.0,0.0,96,0.01,-RA,,0.04,WeatherDisplay:10.37,2013-06-11 01:59:00,
2013-06-10 22:04:00,55.5,54.4,30.08,NNW,345,0.0,0.0,96,0.02,-RA,,0.05,WeatherDisplay:10.37,2013-06-11 02:04:00,
2013-06-10 22:09:00,55.4,54.3,30.08,NNW,345,0.0,0.0,96,0.02,-RA,,0.05,WeatherDisplay:10.37,2013-06-11 02:09:00,
2013-06-10 22:14:00,55.0,55.0,30.07,NNW,345,0.0,0.0,100,0.02,-RA,,0.05,WeatherDisplay:10.37,2013-06-11 02:14:00,
2013-06-10 22:19:00,54.8,54.8,30.07,NNW,345,0.0,0.0,100,0.02,-RA,,0.05,WeatherDisplay:10.37,2013-06-11 02:19:00,
2013-06-10 22:24:00,54.7,54.7,30.07,NNW,345,0.0,0.0,100,0.02,-RA,,0.05,WeatherDisplay:10.37,2013-06-11 02:24:00,
2013-06-10 22:29:00,55.0,55.0,30.07,NNW,345,1.1,0.0,100,0.01,-RA,,0.05,WeatherDisplay:10.37,2013-06-11 02:29:00,
2013-06-10 22:34:00,54.9,54.9,30.07,NNW,345,0.0,0.0,100,0.02,-RA,,0.06,WeatherDisplay:10.37,2013-06-11 02:34:00,
2013-06-10 22:39:00,55.2,55.2,30.07,NNW,345,0.0,0.0,100,0.02,-RA,,0.06,WeatherDisplay:10.37,2013-06-11 02:39:00,
2013-06-10 22:44:00,54.6,54.6,30.07,NNW,345,0.0,0.0,100,0.02,-RA,,0.06,WeatherDisplay:10.37,2013-06-11 02:44:00,
2013-06-10 22:49:00,54.6,54.6,30.07,NNW,345,2.3,2.3,100,0.03,-RA,,0.07,WeatherDisplay:10.37,2013-06-11 02:49:00,
2013-06-10 22:54:00,54.9,54.9,30.07,NNW,345,0.0,0.0,100,0.03,-RA,,0.07,WeatherDisplay:10.37,2013-06-11 02:54:00,
2013-06-10 22:59:00,54.7,54.7,30.07,NNW,345,1.1,0.0,100,0.03,-RA,,0.08,WeatherDisplay:10.37,2013-06-11 02:59:00,
2013-06-10 23:04:00,54.4,54.4,30.07,NNW,345,1.1,0.0,100,0.03,-RA,,0.08,WeatherDisplay:10.37,2013-06-11 03:04:00,
2013-06-10 23:09:00,54.5,54.5,30.07,NNW,345,0.0,0.0,100,0.03,-RA,,0.08,WeatherDisplay:10.37,2013-06-11 03:09:00,
2013-06-10 23:14:00,54.8,53.7,30.05,NNW,345,0.0,0.0,96,0.04,-RA,,0.09,WeatherDisplay:10.37,2013-06-11 03:14:00,
2013-06-10 23:19:00,54.3,53.2,30.05,NNW,345,0.0,0.0,96,0.04,-RA,,0.09,WeatherDisplay:10.37,2013-06-11 03:19:00,
2013-06-10 23:24:00,55.5,54.4,30.05,NNW,345,0.0,0.0,96,0.05,-RA,,0.10,WeatherDisplay:10.37,2013-06-11 03:24:00,
2013-06-10 23:29:00,56.1,55.0,30.05,NNW,345,0.0,0.0,96,0.05,-RA,,0.10,WeatherDisplay:10.37,2013-06-11 03:29:00,
2013-06-10 23:34:00,56.0,54.9,30.05,NNW,345,0.0,0.0,96,0.05,-RA,,0.11,WeatherDisplay:10.37,2013-06-11 03:34:00,
2013-06-10 23:39:00,56.4,55.3,30.05,NNW,345,0.0,0.0,96,0.05,-RA,,0.11,WeatherDisplay:10.37,2013-06-11 03:39:00,
2013-06-10 23:44:00,55.9,54.8,30.05,NNW,345,0.0,0.0,96,0.06,-RA,,0.12,WeatherDisplay:10.37,2013-06-11 03:44:00,
2013-06-10 23:49:00,54.0,52.9,30.05,NNW,345,0.0,0.0,96,0.05,-RA,,0.12,WeatherDisplay:10.37,2013-06-11 03:49:00,
2013-06-10 23:54:00,54.1,53.0,30.05,NNW,345,0.0,0.0,96,0.06,-RA,,0.13,WeatherDisplay:10.37,2013-06-11 03:54:00,
2013-06-10 23:59:00,54.4,53.3,30.05,NNW,345,0.0,0.0,96,0.07,-RA,,0.14,WeatherDisplay:10.37,2013-06-11 03:59:00,